sensor_id;sensor_type;location;lat;lon;timestamp;temperature;humidity
9118;DHT22;4594;50.994;7.126;2022-12-20T00:01:31;13.20;59.80
9118;DHT22;4594;50.994;7.126;2022-12-20T00:04:00;13.30;58.20
9118;DHT22;4594;50.994;7.126;2022-12-20T00:06:27;13.30;59.70
9118;DHT22;4594;50.994;7.126;2022-12-20T00:08:58;13.30;60.00
9118;DHT22;4594;50.994;7.126;2022-12-20T00:11:27;13.30;59.10
9118;DHT22;4594;50.994;7.126;2022-12-20T00:13:53;13.40;60.10
9118;DHT22;4594;50.994;7.126;2022-12-20T00:16:21;13.40;60.10
9118;DHT22;4594;50.994;7.126;2022-12-20T00:18:53;13.40;59.70
9118;DHT22;4594;50.994;7.126;2022-12-20T00:21:21;13.40;59.10
9118;DHT22;4594;50.994;7.126;2022-12-20T00:23:47;13.40;59.80
9118;DHT22;4594;50.994;7.126;2022-12-20T00:26:16;13.40;59.70
9118;DHT22;4594;50.994;7.126;2022-12-20T00:28:44;13.40;59.20
9118;DHT22;4594;50.994;7.126;2022-12-20T00:31:16;13.40;59.30
9118;DHT22;4594;50.994;7.126;2022-12-20T00:33:45;13.40;58.50
9118;DHT22;4594;50.994;7.126;2022-12-20T00:36:13;13.40;58.70
9118;DHT22;4594;50.994;7.126;2022-12-20T00:38:40;13.30;59.20
9118;DHT22;4594;50.994;7.126;2022-12-20T00:41:15;13.30;59.20
9118;DHT22;4594;50.994;7.126;2022-12-20T00:43:43;13.30;59.10
9118;DHT22;4594;50.994;7.126;2022-12-20T00:46:10;13.20;59.10
9118;DHT22;4594;50.994;7.126;2022-12-20T00:48:37;13.20;58.90
9118;DHT22;4594;50.994;7.126;2022-12-20T00:51:11;13.20;59.00
9118;DHT22;4594;50.994;7.126;2022-12-20T00:53:39;13.20;58.40
9118;DHT22;4594;50.994;7.126;2022-12-20T00:56:07;13.20;59.10
9118;DHT22;4594;50.994;7.126;2022-12-20T00:58:38;13.10;59.30
9118;DHT22;4594;50.994;7.126;2022-12-20T01:01:06;13.00;59.10
9118;DHT22;4594;50.994;7.126;2022-12-20T01:03:40;12.90;59.60
9118;DHT22;4594;50.994;7.126;2022-12-20T01:06:06;12.90;59.90
9118;DHT22;4594;50.994;7.126;2022-12-20T01:08:31;12.90;60.00
9118;DHT22;4594;50.994;7.126;2022-12-20T01:11:12;12.80;60.00
9118;DHT22;4594;50.994;7.126;2022-12-20T01:13:43;12.80;59.30
9118;DHT22;4594;50.994;7.126;2022-12-20T01:18:39;12.70;60.20
9118;DHT22;4594;50.994;7.126;2022-12-20T01:21:07;12.60;60.00
9118;DHT22;4594;50.994;7.126;2022-12-20T01:23:35;12.60;60.00
9118;DHT22;4594;50.994;7.126;2022-12-20T01:26:03;12.60;60.10
9118;DHT22;4594;50.994;7.126;2022-12-20T01:28:31;12.60;60.20
9118;DHT22;4594;50.994;7.126;2022-12-20T01:30:57;12.50;60.40
9118;DHT22;4594;50.994;7.126;2022-12-20T01:33:22;12.50;60.40
9118;DHT22;4594;50.994;7.126;2022-12-20T01:35:59;12.40;60.30
9118;DHT22;4594;50.994;7.126;2022-12-20T01:38:27;12.40;59.50
9118;DHT22;4594;50.994;7.126;2022-12-20T01:40:54;12.40;60.30
9118;DHT22;4594;50.994;7.126;2022-12-20T01:43:23;12.40;60.10
9118;DHT22;4594;50.994;7.126;2022-12-20T01:45:50;12.30;60.00
9118;DHT22;4594;50.994;7.126;2022-12-20T01:48:21;12.30;60.20
9118;DHT22;4594;50.994;7.126;2022-12-20T01:50:51;12.20;59.70
9118;DHT22;4594;50.994;7.126;2022-12-20T01:53:20;12.20;60.10
9118;DHT22;4594;50.994;7.126;2022-12-20T01:55:47;12.30;59.90
9118;DHT22;4594;50.994;7.126;2022-12-20T01:58:15;12.20;60.10
9118;DHT22;4594;50.994;7.126;2022-12-20T02:00:43;12.10;59.90
9118;DHT22;4594;50.994;7.126;2022-12-20T02:03:11;12.10;60.10
9118;DHT22;4594;50.994;7.126;2022-12-20T02:05:44;12.10;59.60
9118;DHT22;4594;50.994;7.126;2022-12-20T02:08:16;12.00;59.30
9118;DHT22;4594;50.994;7.126;2022-12-20T02:16:43;12.10;59.30
9118;DHT22;4594;50.994;7.126;2022-12-20T02:30:53;11.90;59.10
9118;DHT22;4594;50.994;7.126;2022-12-20T02:33:23;11.90;60.40
9118;DHT22;4594;50.994;7.126;2022-12-20T02:35:51;11.80;60.40
9118;DHT22;4594;50.994;7.126;2022-12-20T02:38:31;11.80;60.60
9118;DHT22;4594;50.994;7.126;2022-12-20T02:44:11;11.80;59.80
9118;DHT22;4594;50.994;7.126;2022-12-20T02:46:59;11.80;60.30
9118;DHT22;4594;50.994;7.126;2022-12-20T02:49:31;11.70;61.10
9118;DHT22;4594;50.994;7.126;2022-12-20T02:52:04;11.70;61.40
9118;DHT22;4594;50.994;7.126;2022-12-20T02:54:32;11.70;61.50
9118;DHT22;4594;50.994;7.126;2022-12-20T02:59:48;11.60;61.30
9118;DHT22;4594;50.994;7.126;2022-12-20T03:02:21;11.60;61.00
9118;DHT22;4594;50.994;7.126;2022-12-20T03:04:48;11.60;61.80
9118;DHT22;4594;50.994;7.126;2022-12-20T03:07:15;11.60;62.00
9118;DHT22;4594;50.994;7.126;2022-12-20T03:09:43;11.60;62.00
9118;DHT22;4594;50.994;7.126;2022-12-20T03:12:10;11.60;61.90
9118;DHT22;4594;50.994;7.126;2022-12-20T03:14:38;11.60;62.10
9118;DHT22;4594;50.994;7.126;2022-12-20T03:17:06;11.50;62.00
9118;DHT22;4594;50.994;7.126;2022-12-20T03:19:32;11.60;62.20
9118;DHT22;4594;50.994;7.126;2022-12-20T03:21:58;11.50;62.30
9118;DHT22;4594;50.994;7.126;2022-12-20T03:24:24;11.50;62.30
9118;DHT22;4594;50.994;7.126;2022-12-20T03:26:50;11.50;62.30
9118;DHT22;4594;50.994;7.126;2022-12-20T03:29:16;11.50;62.30
9118;DHT22;4594;50.994;7.126;2022-12-20T03:31:42;11.50;62.40
9118;DHT22;4594;50.994;7.126;2022-12-20T03:34:08;11.50;62.60
9118;DHT22;4594;50.994;7.126;2022-12-20T03:36:33;11.50;62.80
9118;DHT22;4594;50.994;7.126;2022-12-20T03:38:59;11.50;62.90
9118;DHT22;4594;50.994;7.126;2022-12-20T03:41:25;11.50;63.10
9118;DHT22;4594;50.994;7.126;2022-12-20T03:43:52;11.60;63.40
9118;DHT22;4594;50.994;7.126;2022-12-20T03:46:18;11.60;63.50
9118;DHT22;4594;50.994;7.126;2022-12-20T03:48:43;11.60;63.60
9118;DHT22;4594;50.994;7.126;2022-12-20T03:51:09;11.50;63.60
9118;DHT22;4594;50.994;7.126;2022-12-20T03:53:35;11.60;63.80
9118;DHT22;4594;50.994;7.126;2022-12-20T03:56:01;11.60;63.90
9118;DHT22;4594;50.994;7.126;2022-12-20T03:58:27;11.60;64.00
9118;DHT22;4594;50.994;7.126;2022-12-20T04:00:52;11.70;64.20
9118;DHT22;4594;50.994;7.126;2022-12-20T04:03:18;11.70;64.20
9118;DHT22;4594;50.994;7.126;2022-12-20T04:05:44;11.70;64.30
9118;DHT22;4594;50.994;7.126;2022-12-20T04:08:10;11.70;64.30
9118;DHT22;4594;50.994;7.126;2022-12-20T04:10:35;11.70;64.40
9118;DHT22;4594;50.994;7.126;2022-12-20T04:13:21;11.80;64.40
9118;DHT22;4594;50.994;7.126;2022-12-20T04:15:46;11.80;64.30
9118;DHT22;4594;50.994;7.126;2022-12-20T04:18:12;11.80;64.30
9118;DHT22;4594;50.994;7.126;2022-12-20T04:20:38;11.80;64.30
9118;DHT22;4594;50.994;7.126;2022-12-20T04:23:03;11.80;64.30
9118;DHT22;4594;50.994;7.126;2022-12-20T04:25:29;11.90;64.40
9118;DHT22;4594;50.994;7.126;2022-12-20T04:27:54;11.90;64.50
9118;DHT22;4594;50.994;7.126;2022-12-20T04:30:20;11.90;64.50
9118;DHT22;4594;50.994;7.126;2022-12-20T04:32:46;11.90;64.50
9118;DHT22;4594;50.994;7.126;2022-12-20T04:35:11;11.90;64.20
9118;DHT22;4594;50.994;7.126;2022-12-20T04:37:37;11.90;64.10
9118;DHT22;4594;50.994;7.126;2022-12-20T04:40:03;11.90;64.10
9118;DHT22;4594;50.994;7.126;2022-12-20T04:42:30;11.90;64.00
9118;DHT22;4594;50.994;7.126;2022-12-20T04:44:56;11.90;64.00
9118;DHT22;4594;50.994;7.126;2022-12-20T04:47:22;11.90;64.00
9118;DHT22;4594;50.994;7.126;2022-12-20T04:49:48;11.90;63.90
9118;DHT22;4594;50.994;7.126;2022-12-20T04:52:13;11.90;63.90
9118;DHT22;4594;50.994;7.126;2022-12-20T04:54:57;11.90;63.90
9118;DHT22;4594;50.994;7.126;2022-12-20T04:57:23;11.90;64.00
9118;DHT22;4594;50.994;7.126;2022-12-20T04:59:49;11.80;63.90
9118;DHT22;4594;50.994;7.126;2022-12-20T05:02:14;11.90;64.10
9118;DHT22;4594;50.994;7.126;2022-12-20T05:04:40;11.80;64.00
9118;DHT22;4594;50.994;7.126;2022-12-20T05:07:05;11.90;64.10
9118;DHT22;4594;50.994;7.126;2022-12-20T05:09:31;11.90;64.20
9118;DHT22;4594;50.994;7.126;2022-12-20T05:11:57;11.90;64.10
9118;DHT22;4594;50.994;7.126;2022-12-20T05:14:22;11.90;64.10
9118;DHT22;4594;50.994;7.126;2022-12-20T05:16:48;11.90;64.00
9118;DHT22;4594;50.994;7.126;2022-12-20T05:19:14;11.90;63.90
9118;DHT22;4594;50.994;7.126;2022-12-20T05:21:39;11.80;63.70
9118;DHT22;4594;50.994;7.126;2022-12-20T05:24:23;11.90;63.90
9118;DHT22;4594;50.994;7.126;2022-12-20T05:27:08;11.80;63.80
9118;DHT22;4594;50.994;7.126;2022-12-20T05:29:33;11.80;63.70
9118;DHT22;4594;50.994;7.126;2022-12-20T05:31:59;11.80;63.80
9118;DHT22;4594;50.994;7.126;2022-12-20T05:34:25;11.80;63.80
9118;DHT22;4594;50.994;7.126;2022-12-20T05:36:50;11.80;63.90
9118;DHT22;4594;50.994;7.126;2022-12-20T05:39:16;11.80;63.90
9118;DHT22;4594;50.994;7.126;2022-12-20T05:41:42;11.80;63.90
9118;DHT22;4594;50.994;7.126;2022-12-20T05:44:08;11.80;63.70
9118;DHT22;4594;50.994;7.126;2022-12-20T05:46:33;11.80;63.60
9118;DHT22;4594;50.994;7.126;2022-12-20T05:48:59;11.80;63.60
9118;DHT22;4594;50.994;7.126;2022-12-20T05:51:25;11.80;63.60
9118;DHT22;4594;50.994;7.126;2022-12-20T05:53:50;11.80;63.60
9118;DHT22;4594;50.994;7.126;2022-12-20T05:56:16;11.80;63.70
9118;DHT22;4594;50.994;7.126;2022-12-20T05:58:42;11.80;63.80
9118;DHT22;4594;50.994;7.126;2022-12-20T06:01:08;11.80;63.80
9118;DHT22;4594;50.994;7.126;2022-12-20T06:03:35;11.80;63.90
9118;DHT22;4594;50.994;7.126;2022-12-20T06:06:02;11.80;64.30
9118;DHT22;4594;50.994;7.126;2022-12-20T06:08:28;11.80;64.40
9118;DHT22;4594;50.994;7.126;2022-12-20T06:10:54;11.80;64.20
9118;DHT22;4594;50.994;7.126;2022-12-20T06:13:20;11.80;64.20
9118;DHT22;4594;50.994;7.126;2022-12-20T06:15:46;11.90;64.30
9118;DHT22;4594;50.994;7.126;2022-12-20T06:18:11;11.80;64.20
9118;DHT22;4594;50.994;7.126;2022-12-20T06:20:38;11.90;64.50
9118;DHT22;4594;50.994;7.126;2022-12-20T06:23:04;11.90;64.30
9118;DHT22;4594;50.994;7.126;2022-12-20T06:25:30;11.90;64.30
9118;DHT22;4594;50.994;7.126;2022-12-20T06:27:56;11.90;64.20
9118;DHT22;4594;50.994;7.126;2022-12-20T06:30:22;11.90;64.00
9118;DHT22;4594;50.994;7.126;2022-12-20T06:32:48;11.90;64.10
9118;DHT22;4594;50.994;7.126;2022-12-20T06:35:14;11.90;64.20
9118;DHT22;4594;50.994;7.126;2022-12-20T06:37:41;11.90;64.10
9118;DHT22;4594;50.994;7.126;2022-12-20T06:40:09;11.90;64.00
9118;DHT22;4594;50.994;7.126;2022-12-20T06:42:37;11.90;64.00
9118;DHT22;4594;50.994;7.126;2022-12-20T06:45:03;11.90;64.10
9118;DHT22;4594;50.994;7.126;2022-12-20T06:47:30;11.90;64.20
9118;DHT22;4594;50.994;7.126;2022-12-20T06:49:56;11.90;64.20
9118;DHT22;4594;50.994;7.126;2022-12-20T06:52:22;12.00;64.30
9118;DHT22;4594;50.994;7.126;2022-12-20T06:54:49;11.90;64.00
9118;DHT22;4594;50.994;7.126;2022-12-20T06:57:14;11.90;64.00
9118;DHT22;4594;50.994;7.126;2022-12-20T06:59:40;12.00;64.00
9118;DHT22;4594;50.994;7.126;2022-12-20T07:02:10;12.00;64.00
9118;DHT22;4594;50.994;7.126;2022-12-20T07:04:36;12.00;63.60
9118;DHT22;4594;50.994;7.126;2022-12-20T07:07:02;12.00;63.80
9118;DHT22;4594;50.994;7.126;2022-12-20T07:09:28;12.00;63.70
9118;DHT22;4594;50.994;7.126;2022-12-20T07:11:55;12.00;63.80
9118;DHT22;4594;50.994;7.126;2022-12-20T07:14:21;12.00;63.90
9118;DHT22;4594;50.994;7.126;2022-12-20T07:16:47;12.00;63.80
9118;DHT22;4594;50.994;7.126;2022-12-20T07:19:13;12.00;64.00
9118;DHT22;4594;50.994;7.126;2022-12-20T07:21:40;12.00;63.90
9118;DHT22;4594;50.994;7.126;2022-12-20T07:24:07;12.00;63.90
9118;DHT22;4594;50.994;7.126;2022-12-20T07:26:33;12.10;64.00
9118;DHT22;4594;50.994;7.126;2022-12-20T07:28:59;12.10;63.80
9118;DHT22;4594;50.994;7.126;2022-12-20T07:31:25;12.10;63.70
9118;DHT22;4594;50.994;7.126;2022-12-20T07:33:51;12.10;63.60
9118;DHT22;4594;50.994;7.126;2022-12-20T07:36:16;12.10;63.50
9118;DHT22;4594;50.994;7.126;2022-12-20T07:38:42;12.10;63.30
9118;DHT22;4594;50.994;7.126;2022-12-20T07:41:13;12.10;63.20
9118;DHT22;4594;50.994;7.126;2022-12-20T07:43:40;12.10;63.10
9118;DHT22;4594;50.994;7.126;2022-12-20T07:46:06;12.20;63.20
9118;DHT22;4594;50.994;7.126;2022-12-20T07:48:33;12.10;63.10
9118;DHT22;4594;50.994;7.126;2022-12-20T07:51:14;12.10;63.30
9118;DHT22;4594;50.994;7.126;2022-12-20T07:54:10;12.10;61.70
9118;DHT22;4594;50.994;7.126;2022-12-20T07:56:42;12.10;61.00
9118;DHT22;4594;50.994;7.126;2022-12-20T07:59:13;12.10;62.90
9118;DHT22;4594;50.994;7.126;2022-12-20T08:01:42;12.10;63.00
9118;DHT22;4594;50.994;7.126;2022-12-20T08:04:19;12.10;63.20
9118;DHT22;4594;50.994;7.126;2022-12-20T08:06:49;12.10;62.10
9118;DHT22;4594;50.994;7.126;2022-12-20T08:09:18;12.10;63.30
9118;DHT22;4594;50.994;7.126;2022-12-20T08:11:46;12.20;63.40
9118;DHT22;4594;50.994;7.126;2022-12-20T08:14:15;12.10;63.00
9118;DHT22;4594;50.994;7.126;2022-12-20T08:16:43;12.10;63.40
9118;DHT22;4594;50.994;7.126;2022-12-20T08:19:09;12.20;63.60
9118;DHT22;4594;50.994;7.126;2022-12-20T08:21:35;12.20;63.60
9118;DHT22;4594;50.994;7.126;2022-12-20T08:24:01;12.20;63.60
9118;DHT22;4594;50.994;7.126;2022-12-20T08:26:27;12.20;63.50
9118;DHT22;4594;50.994;7.126;2022-12-20T08:28:54;12.20;63.40
9118;DHT22;4594;50.994;7.126;2022-12-20T08:31:20;12.20;63.40
9118;DHT22;4594;50.994;7.126;2022-12-20T08:33:46;12.20;63.60
9118;DHT22;4594;50.994;7.126;2022-12-20T08:36:12;12.20;63.60
9118;DHT22;4594;50.994;7.126;2022-12-20T08:38:39;12.30;63.90
9118;DHT22;4594;50.994;7.126;2022-12-20T08:41:08;12.30;63.80
9118;DHT22;4594;50.994;7.126;2022-12-20T08:43:36;12.30;63.50
9118;DHT22;4594;50.994;7.126;2022-12-20T08:46:03;12.30;63.80
9118;DHT22;4594;50.994;7.126;2022-12-20T08:48:31;12.30;63.40
9118;DHT22;4594;50.994;7.126;2022-12-20T08:51:05;12.40;63.50
9118;DHT22;4594;50.994;7.126;2022-12-20T08:53:33;12.40;62.50
9118;DHT22;4594;50.994;7.126;2022-12-20T08:56:11;12.40;63.50
9118;DHT22;4594;50.994;7.126;2022-12-20T08:58:38;12.40;62.10
9118;DHT22;4594;50.994;7.126;2022-12-20T09:01:07;12.50;63.60
9118;DHT22;4594;50.994;7.126;2022-12-20T09:03:35;12.40;63.30
9118;DHT22;4594;50.994;7.126;2022-12-20T09:06:17;12.50;63.70
9118;DHT22;4594;50.994;7.126;2022-12-20T09:08:44;12.50;62.30
9118;DHT22;4594;50.994;7.126;2022-12-20T09:11:20;12.50;63.70
9118;DHT22;4594;50.994;7.126;2022-12-20T09:13:50;12.50;62.80
9118;DHT22;4594;50.994;7.126;2022-12-20T09:16:20;12.50;63.50
9118;DHT22;4594;50.994;7.126;2022-12-20T09:18:49;12.50;63.30
9118;DHT22;4594;50.994;7.126;2022-12-20T09:21:17;12.50;63.50
9118;DHT22;4594;50.994;7.126;2022-12-20T09:23:43;12.60;63.50
9118;DHT22;4594;50.994;7.126;2022-12-20T09:26:12;12.60;63.50
9118;DHT22;4594;50.994;7.126;2022-12-20T09:28:40;12.60;63.00
9118;DHT22;4594;50.994;7.126;2022-12-20T09:31:09;12.60;63.20
9118;DHT22;4594;50.994;7.126;2022-12-20T09:33:39;12.60;62.90
9118;DHT22;4594;50.994;7.126;2022-12-20T09:36:05;12.60;63.00
9118;DHT22;4594;50.994;7.126;2022-12-20T09:38:32;12.60;63.00
9118;DHT22;4594;50.994;7.126;2022-12-20T09:41:00;12.60;63.00
9118;DHT22;4594;50.994;7.126;2022-12-20T09:43:28;12.70;62.90
9118;DHT22;4594;50.994;7.126;2022-12-20T09:45:59;12.60;63.00
9118;DHT22;4594;50.994;7.126;2022-12-20T09:48:33;12.70;62.90
9118;DHT22;4594;50.994;7.126;2022-12-20T09:54:43;12.60;61.00
9118;DHT22;4594;50.994;7.126;2022-12-20T10:00:45;12.70;61.30
9118;DHT22;4594;50.994;7.126;2022-12-20T10:03:20;12.70;62.40
9118;DHT22;4594;50.994;7.126;2022-12-20T10:06:12;12.70;62.60
9118;DHT22;4594;50.994;7.126;2022-12-20T10:09:04;12.70;61.40
9118;DHT22;4594;50.994;7.126;2022-12-20T10:11:48;12.80;63.80
9118;DHT22;4594;50.994;7.126;2022-12-20T10:17:18;12.80;63.60
9118;DHT22;4594;50.994;7.126;2022-12-20T10:20:29;12.90;63.50
9118;DHT22;4594;50.994;7.126;2022-12-20T10:23:24;12.90;62.20
9118;DHT22;4594;50.994;7.126;2022-12-20T10:25:56;12.90;62.50
9118;DHT22;4594;50.994;7.126;2022-12-20T10:28:32;13.00;64.00
9118;DHT22;4594;50.994;7.126;2022-12-20T10:31:02;13.00;63.20
9118;DHT22;4594;50.994;7.126;2022-12-20T10:33:32;13.00;63.70
9118;DHT22;4594;50.994;7.126;2022-12-20T10:36:27;13.00;63.90
9118;DHT22;4594;50.994;7.126;2022-12-20T10:39:00;13.00;61.50
9118;DHT22;4594;50.994;7.126;2022-12-20T10:44:15;13.10;62.80
9118;DHT22;4594;50.994;7.126;2022-12-20T10:46:45;13.10;63.20
9118;DHT22;4594;50.994;7.126;2022-12-20T10:49:31;13.10;63.50
9118;DHT22;4594;50.994;7.126;2022-12-20T10:52:10;13.10;61.60
9118;DHT22;4594;50.994;7.126;2022-12-20T10:54:39;13.10;63.20
9118;DHT22;4594;50.994;7.126;2022-12-20T10:57:27;13.20;63.90
9118;DHT22;4594;50.994;7.126;2022-12-20T10:59:59;13.20;61.30
9118;DHT22;4594;50.994;7.126;2022-12-20T11:02:29;13.20;63.20
9118;DHT22;4594;50.994;7.126;2022-12-20T11:05:00;13.20;63.30
9118;DHT22;4594;50.994;7.126;2022-12-20T11:07:58;13.20;63.40
9118;DHT22;4594;50.994;7.126;2022-12-20T11:10:32;13.30;63.70
9118;DHT22;4594;50.994;7.126;2022-12-20T11:12:59;13.30;63.80
9118;DHT22;4594;50.994;7.126;2022-12-20T11:15:32;13.40;63.80
9118;DHT22;4594;50.994;7.126;2022-12-20T11:18:07;13.40;63.70
9118;DHT22;4594;50.994;7.126;2022-12-20T11:20:46;13.40;62.90
9118;DHT22;4594;50.994;7.126;2022-12-20T11:23:42;13.50;62.30
9118;DHT22;4594;50.994;7.126;2022-12-20T11:35:23;13.60;61.10
9118;DHT22;4594;50.994;7.126;2022-12-20T11:46:24;13.80;61.20
9118;DHT22;4594;50.994;7.126;2022-12-20T11:52:12;13.70;60.50
9118;DHT22;4594;50.994;7.126;2022-12-20T11:58:09;13.60;61.30
9118;DHT22;4594;50.994;7.126;2022-12-20T12:03:29;13.80;61.50
9118;DHT22;4594;50.994;7.126;2022-12-20T12:06:25;13.80;61.50
9118;DHT22;4594;50.994;7.126;2022-12-20T12:11:40;13.80;60.30
9118;DHT22;4594;50.994;7.126;2022-12-20T12:14:30;13.90;61.60
9118;DHT22;4594;50.994;7.126;2022-12-20T12:17:25;13.80;60.00
9118;DHT22;4594;50.994;7.126;2022-12-20T12:20:24;13.80;60.80
9118;DHT22;4594;50.994;7.126;2022-12-20T12:23:18;13.90;60.00
9118;DHT22;4594;50.994;7.126;2022-12-20T12:25:51;13.90;60.50
9118;DHT22;4594;50.994;7.126;2022-12-20T12:28:19;13.90;62.50
9118;DHT22;4594;50.994;7.126;2022-12-20T12:30:57;13.90;62.20
9118;DHT22;4594;50.994;7.126;2022-12-20T12:33:37;13.90;60.90
9118;DHT22;4594;50.994;7.126;2022-12-20T12:36:50;13.90;60.90
9118;DHT22;4594;50.994;7.126;2022-12-20T12:44:58;13.80;62.60
9118;DHT22;4594;50.994;7.126;2022-12-20T12:47:50;13.80;62.00
9118;DHT22;4594;50.994;7.126;2022-12-20T12:50:24;13.80;60.60
9118;DHT22;4594;50.994;7.126;2022-12-20T12:52:56;13.70;61.80
9118;DHT22;4594;50.994;7.126;2022-12-20T12:55:42;13.70;62.90
9118;DHT22;4594;50.994;7.126;2022-12-20T12:58:30;13.70;62.50
9118;DHT22;4594;50.994;7.126;2022-12-20T13:11:39;13.70;63.50
9118;DHT22;4594;50.994;7.126;2022-12-20T13:22:16;13.70;63.90
9118;DHT22;4594;50.994;7.126;2022-12-20T13:27:29;13.80;62.50
9118;DHT22;4594;50.994;7.126;2022-12-20T13:40:47;13.80;63.10
9118;DHT22;4594;50.994;7.126;2022-12-20T13:43:29;13.80;61.50
9118;DHT22;4594;50.994;7.126;2022-12-20T13:51:19;13.80;61.00
9118;DHT22;4594;50.994;7.126;2022-12-20T13:54:01;13.80;61.70
9118;DHT22;4594;50.994;7.126;2022-12-20T13:56:47;13.70;60.60
9118;DHT22;4594;50.994;7.126;2022-12-20T13:59:29;13.70;60.10
9118;DHT22;4594;50.994;7.126;2022-12-20T14:01:59;13.70;60.40
9118;DHT22;4594;50.994;7.126;2022-12-20T14:04:43;13.70;62.20
9118;DHT22;4594;50.994;7.126;2022-12-20T14:07:15;13.70;60.70
9118;DHT22;4594;50.994;7.126;2022-12-20T14:09:47;13.70;62.30
9118;DHT22;4594;50.994;7.126;2022-12-20T14:12:21;13.70;61.80
9118;DHT22;4594;50.994;7.126;2022-12-20T14:14:49;13.60;62.50
9118;DHT22;4594;50.994;7.126;2022-12-20T14:17:30;13.70;62.20
9118;DHT22;4594;50.994;7.126;2022-12-20T14:22:37;13.70;61.10
9118;DHT22;4594;50.994;7.126;2022-12-20T14:25:14;13.70;62.60
9118;DHT22;4594;50.994;7.126;2022-12-20T14:27:43;13.70;62.20
9118;DHT22;4594;50.994;7.126;2022-12-20T14:30:40;13.90;62.90
9118;DHT22;4594;50.994;7.126;2022-12-20T14:33:30;13.70;60.60
9118;DHT22;4594;50.994;7.126;2022-12-20T14:38:50;13.60;60.90
9118;DHT22;4594;50.994;7.126;2022-12-20T14:41:38;13.60;62.50
9118;DHT22;4594;50.994;7.126;2022-12-20T14:44:20;13.60;60.90
9118;DHT22;4594;50.994;7.126;2022-12-20T14:47:11;13.50;60.90
9118;DHT22;4594;50.994;7.126;2022-12-20T14:49:58;13.50;62.60
9118;DHT22;4594;50.994;7.126;2022-12-20T14:52:35;13.60;62.10
9118;DHT22;4594;50.994;7.126;2022-12-20T14:55:21;13.40;62.20
9118;DHT22;4594;50.994;7.126;2022-12-20T14:57:52;13.40;61.60
9118;DHT22;4594;50.994;7.126;2022-12-20T15:00:26;13.40;63.10
9118;DHT22;4594;50.994;7.126;2022-12-20T15:03:01;13.40;62.80
9118;DHT22;4594;50.994;7.126;2022-12-20T15:13:39;13.30;63.00
9118;DHT22;4594;50.994;7.126;2022-12-20T15:16:18;13.30;62.80
9118;DHT22;4594;50.994;7.126;2022-12-20T15:18:46;13.20;63.70
9118;DHT22;4594;50.994;7.126;2022-12-20T15:21:31;13.20;64.00
9118;DHT22;4594;50.994;7.126;2022-12-20T15:24:02;13.20;64.00
9118;DHT22;4594;50.994;7.126;2022-12-20T15:26:33;13.20;63.90
9118;DHT22;4594;50.994;7.126;2022-12-20T15:28:59;13.20;63.80
9118;DHT22;4594;50.994;7.126;2022-12-20T15:31:27;13.40;64.00
9118;DHT22;4594;50.994;7.126;2022-12-20T15:33:54;13.20;63.60
9118;DHT22;4594;50.994;7.126;2022-12-20T15:36:25;13.20;63.70
9118;DHT22;4594;50.994;7.126;2022-12-20T15:38:54;13.20;63.50
9118;DHT22;4594;50.994;7.126;2022-12-20T15:41:25;13.10;63.60
9118;DHT22;4594;50.994;7.126;2022-12-20T15:43:59;13.10;63.50
9118;DHT22;4594;50.994;7.126;2022-12-20T15:46:29;13.10;63.50
9118;DHT22;4594;50.994;7.126;2022-12-20T15:48:56;13.30;64.40
9118;DHT22;4594;50.994;7.126;2022-12-20T15:51:36;13.10;64.30
9118;DHT22;4594;50.994;7.126;2022-12-20T15:54:09;13.20;62.90
9118;DHT22;4594;50.994;7.126;2022-12-20T15:56:41;13.10;64.10
9118;DHT22;4594;50.994;7.126;2022-12-20T15:59:06;13.10;64.50
9118;DHT22;4594;50.994;7.126;2022-12-20T16:01:37;13.20;64.60
9118;DHT22;4594;50.994;7.126;2022-12-20T16:04:04;13.10;64.00
9118;DHT22;4594;50.994;7.126;2022-12-20T16:06:31;13.20;64.70
9118;DHT22;4594;50.994;7.126;2022-12-20T16:08:57;13.10;64.40
9118;DHT22;4594;50.994;7.126;2022-12-20T16:11:28;13.10;64.30
9118;DHT22;4594;50.994;7.126;2022-12-20T16:13:58;13.10;64.20
9118;DHT22;4594;50.994;7.126;2022-12-20T16:16:29;13.10;63.70
9118;DHT22;4594;50.994;7.126;2022-12-20T16:19:01;13.10;64.10
9118;DHT22;4594;50.994;7.126;2022-12-20T16:21:42;13.10;64.40
9118;DHT22;4594;50.994;7.126;2022-12-20T16:24:13;13.00;63.10
9118;DHT22;4594;50.994;7.126;2022-12-20T16:26:40;13.10;64.50
9118;DHT22;4594;50.994;7.126;2022-12-20T16:29:06;13.20;64.60
9118;DHT22;4594;50.994;7.126;2022-12-20T16:31:37;13.00;64.40
9118;DHT22;4594;50.994;7.126;2022-12-20T16:34:08;13.30;64.20
9118;DHT22;4594;50.994;7.126;2022-12-20T16:36:37;12.90;64.10
9118;DHT22;4594;50.994;7.126;2022-12-20T16:39:03;13.00;64.40
9118;DHT22;4594;50.994;7.126;2022-12-20T16:41:30;13.00;64.30
9118;DHT22;4594;50.994;7.126;2022-12-20T16:43:59;13.00;64.20
9118;DHT22;4594;50.994;7.126;2022-12-20T16:46:29;13.00;64.40
9118;DHT22;4594;50.994;7.126;2022-12-20T16:48:57;13.00;64.30
9118;DHT22;4594;50.994;7.126;2022-12-20T16:51:30;13.00;64.50
9118;DHT22;4594;50.994;7.126;2022-12-20T16:54:00;13.10;64.40
9118;DHT22;4594;50.994;7.126;2022-12-20T16:56:28;13.20;64.60
9118;DHT22;4594;50.994;7.126;2022-12-20T16:58:55;13.00;64.80
9118;DHT22;4594;50.994;7.126;2022-12-20T17:01:33;12.90;64.90
9118;DHT22;4594;50.994;7.126;2022-12-20T17:04:01;13.20;65.10
9118;DHT22;4594;50.994;7.126;2022-12-20T17:06:27;12.90;65.10
9118;DHT22;4594;50.994;7.126;2022-12-20T17:08:53;12.90;65.20
9118;DHT22;4594;50.994;7.126;2022-12-20T17:11:28;12.90;65.30
9118;DHT22;4594;50.994;7.126;2022-12-20T17:13:56;13.00;64.70
9118;DHT22;4594;50.994;7.126;2022-12-20T17:16:23;12.90;65.50
9118;DHT22;4594;50.994;7.126;2022-12-20T17:18:51;13.00;65.70
9118;DHT22;4594;50.994;7.126;2022-12-20T17:21:22;13.00;65.50
9118;DHT22;4594;50.994;7.126;2022-12-20T17:23:53;13.00;65.40
9118;DHT22;4594;50.994;7.126;2022-12-20T17:26:22;12.90;65.70
9118;DHT22;4594;50.994;7.126;2022-12-20T17:28:50;13.00;65.70
9118;DHT22;4594;50.994;7.126;2022-12-20T17:31:34;13.10;65.90
9118;DHT22;4594;50.994;7.126;2022-12-20T17:34:20;13.00;65.20
9118;DHT22;4594;50.994;7.126;2022-12-20T17:36:49;13.10;64.70
9118;DHT22;4594;50.994;7.126;2022-12-20T17:39:16;13.00;65.70
9118;DHT22;4594;50.994;7.126;2022-12-20T17:41:42;13.10;65.80
9118;DHT22;4594;50.994;7.126;2022-12-20T17:44:23;13.00;65.50
9118;DHT22;4594;50.994;7.126;2022-12-20T17:46:51;13.10;64.50
9118;DHT22;4594;50.994;7.126;2022-12-20T17:49:18;13.10;65.60
9118;DHT22;4594;50.994;7.126;2022-12-20T17:51:45;13.00;65.50
9118;DHT22;4594;50.994;7.126;2022-12-20T17:54:17;13.00;65.40
9118;DHT22;4594;50.994;7.126;2022-12-20T17:56:45;13.00;64.90
9118;DHT22;4594;50.994;7.126;2022-12-20T17:59:12;13.00;65.50
9118;DHT22;4594;50.994;7.126;2022-12-20T18:01:38;13.00;65.50
9118;DHT22;4594;50.994;7.126;2022-12-20T18:04:06;12.90;65.60
9118;DHT22;4594;50.994;7.126;2022-12-20T18:06:36;13.00;65.80
9118;DHT22;4594;50.994;7.126;2022-12-20T18:09:05;12.90;65.80
9118;DHT22;4594;50.994;7.126;2022-12-20T18:11:32;12.90;65.90
9118;DHT22;4594;50.994;7.126;2022-12-20T18:14:00;12.90;66.20
9118;DHT22;4594;50.994;7.126;2022-12-20T18:16:29;13.00;66.40
9118;DHT22;4594;50.994;7.126;2022-12-20T18:18:57;12.90;66.30
9118;DHT22;4594;50.994;7.126;2022-12-20T18:21:24;13.00;66.70
9118;DHT22;4594;50.994;7.126;2022-12-20T18:23:52;12.90;66.80
9118;DHT22;4594;50.994;7.126;2022-12-20T18:26:27;13.00;66.90
9118;DHT22;4594;50.994;7.126;2022-12-20T18:28:57;13.00;67.00
9118;DHT22;4594;50.994;7.126;2022-12-20T18:31:27;13.00;67.10